New Hope, Mississippi
Current Conditions -  °F | °C
As of 11:45 AM on Thursday 23 Oct 2014 (Local Time) from KGTR Reporting Station
Scattered Clouds Scattered Clouds  
Wind Chill: 63°   Ceiling: Unl
Heat Index: 63°   Visibility: 10mi
Dew Point: 43°   Wind: 5mph
Humidity: 48%   Direction: 360°N
Pressure: 30.17"   Gusts: NA
Location:  33.455°N, 88.5512°W
Report Text: KGTR 231645Z 36004KT 10SM SCT050 17/06 A3017
Loading
Personal Weather Stations






























Interactive Weather Map New forecast layout! Learn more

10-Day Weather Forecast

Advertisements
Track Severe Weather on mobile